SDR weather

Santander Airport
Santander, Cantabria, Spain

Public forecast

Using degrees Celsius for public forecast. Weather courtesy of forecast.io.

METAR (pilot weather report)

Retrieved 2019/05/23 10:30 UTC (22 minutes ago):

LEXJ 231030Z 27012KT CAVOK 19/12 Q1019

TAF (pilot weather forecast)

Retrieved 2019/05/23 09:27 UTC (1 hour ago):

TAF LEXJ 230800Z 2309/2409 27012KT 9999 SCT015 SCT025 TX18/2314Z TN12/2405Z TEMPO 2309/2312 BKN012 PROB30 TEMPO 2309/2311 4000 BR BKN008 PROB40 TEMPO 2312/2318 SCT025TCU PROB40 TEMPO 2316/2408 3000 -RADZ BKN010 BKN014